This is the latest recevied weather packets stored in our database for station/object WMKN. If no packets are shown the sender has not sent any weather packets the latest 10 day(s).
| Time | Temp. | Humidity | Pressure | Rain* | Wind** | Luminosity | Snow |
|---|---|---|---|---|---|---|---|
| 1777954235 | 32.78° C | 62% | 1009 hPa | - | - | - | - |
| 1777950635 | 30.56° C | 70% | 1010 hPa | - | - | - | - |
| 1777947037 | 30° C | 74% | 1010 hPa | - | - | - | - |
| 1777943434 | 27.78° C | 83% | 1009 hPa | - | - | - | - |
| 1777939846 | 26.67° C | 88% | 1009 hPa | - | - | - | - |
| 1777936799 | 25.56° C | 94% | 1008 hPa | - | - | - | - |
| 1777936235 | 25.56° C | 94% | 1008 hPa | - | - | - | - |
| 1777933198 | 26.67° C | 88% | 1008 hPa | - | - | - | - |
| 1777932633 | 26.67° C | 88% | 1008 hPa | - | - | - | - |
| 1777929033 | 26.67° C | 88% | 1008 hPa | - | - | - | - |
| 1777925436 | 26.67° C | 88% | 1008 hPa | - | - | - | - |
| 1777921846 | 26.67° C | 88% | 1009 hPa | - | - | - | - |
| 1777918239 | 27.78° C | 83% | 1009 hPa | - | - | - | - |
| 1777914634 | 27.78° C | 83% | 1010 hPa | - | - | - | - |
| 1777911034 | 27.78° C | 78% | 1010 hPa | - | - | - | - |
| 1777907444 | 27.78° C | 78% | 1010 hPa | - | - | - | - |
| 1777903836 | 28.89° C | 74% | 1009 hPa | - | - | - | - |
| 1777900233 | 30.56° C | 74% | 1009 hPa | - | - | - | - |
| 1777896634 | 30.56° C | 70% | 1008 hPa | - | - | - | - |
| 1777893043 | 30.56° C | 70% | 1007 hPa | - | - | - | - |
| 1777889434 | 31.67° C | 70% | 1007 hPa | - | - | - | - |
| 1777885832 | 32.78° C | 66% | 1007 hPa | - | - | - | - |
| 1777882232 | 32.78° C | 66% | 1007 hPa | - | - | - | - |
| 1777878642 | 33.89° C | 59% | 1008 hPa | - | - | - | - |
| 1777875033 | 32.78° C | 66% | 1009 hPa | - | - | - | - |
* Rain since midnight (hover to see other rain measurements)
** Current wind speed in m/s (hover to see current wind gust speed)